sensor_id;sensor_type;location;lat;lon;timestamp;P1;durP1;ratioP1;P2;durP2;ratioP2
24617;SDS011;12762;51.730;5.356;2023-11-21T00:02:29;30.30;;;13.70;;
24617;SDS011;12762;51.730;5.356;2023-11-21T00:04:55;32.20;;;13.77;;
24617;SDS011;12762;51.730;5.356;2023-11-21T00:07:22;28.33;;;14.17;;
24617;SDS011;12762;51.730;5.356;2023-11-21T00:09:56;30.27;;;12.47;;
24617;SDS011;12762;51.730;5.356;2023-11-21T00:12:23;27.07;;;13.90;;
24617;SDS011;12762;51.730;5.356;2023-11-21T00:14:50;26.33;;;12.87;;
24617;SDS011;12762;51.730;5.356;2023-11-21T00:17:20;26.10;;;13.07;;
24617;SDS011;12762;51.730;5.356;2023-11-21T00:19:47;27.50;;;12.10;;
24617;SDS011;12762;51.730;5.356;2023-11-21T00:22:14;25.33;;;12.03;;
24617;SDS011;12762;51.730;5.356;2023-11-21T00:24:42;23.27;;;11.90;;
24617;SDS011;12762;51.730;5.356;2023-11-21T00:27:08;24.87;;;11.63;;
24617;SDS011;12762;51.730;5.356;2023-11-21T00:29:35;24.17;;;11.03;;
24617;SDS011;12762;51.730;5.356;2023-11-21T00:32:02;25.20;;;11.10;;
24617;SDS011;12762;51.730;5.356;2023-11-21T00:34:29;25.83;;;10.77;;
24617;SDS011;12762;51.730;5.356;2023-11-21T00:36:58;25.77;;;12.00;;
24617;SDS011;12762;51.730;5.356;2023-11-21T00:39:25;28.27;;;11.13;;
24617;SDS011;12762;51.730;5.356;2023-11-21T00:41:52;28.73;;;12.17;;
24617;SDS011;12762;51.730;5.356;2023-11-21T00:44:22;25.93;;;12.10;;
24617;SDS011;12762;51.730;5.356;2023-11-21T00:46:48;24.13;;;11.70;;
24617;SDS011;12762;51.730;5.356;2023-11-21T00:49:16;26.67;;;12.93;;
24617;SDS011;12762;51.730;5.356;2023-11-21T00:51:47;26.57;;;12.30;;
24617;SDS011;12762;51.730;5.356;2023-11-21T00:54:13;30.67;;;11.60;;
24617;SDS011;12762;51.730;5.356;2023-11-21T00:56:43;30.47;;;12.13;;
24617;SDS011;12762;51.730;5.356;2023-11-21T00:59:10;26.83;;;12.07;;
24617;SDS011;12762;51.730;5.356;2023-11-21T01:01:37;22.10;;;11.60;;
24617;SDS011;12762;51.730;5.356;2023-11-21T01:04:06;22.90;;;11.30;;
24617;SDS011;12762;51.730;5.356;2023-11-21T01:06:34;23.37;;;11.87;;
24617;SDS011;12762;51.730;5.356;2023-11-21T01:09:03;27.60;;;11.43;;
24617;SDS011;12762;51.730;5.356;2023-11-21T01:11:34;19.87;;;10.70;;
24617;SDS011;12762;51.730;5.356;2023-11-21T01:14:03;24.30;;;11.27;;
24617;SDS011;12762;51.730;5.356;2023-11-21T01:16:31;28.07;;;11.60;;
24617;SDS011;12762;51.730;5.356;2023-11-21T01:18:59;24.00;;;11.77;;
24617;SDS011;12762;51.730;5.356;2023-11-21T01:21:26;26.03;;;11.03;;
24617;SDS011;12762;51.730;5.356;2023-11-21T01:23:54;26.83;;;11.73;;
24617;SDS011;12762;51.730;5.356;2023-11-21T01:26:21;30.27;;;12.07;;
24617;SDS011;12762;51.730;5.356;2023-11-21T01:28:48;22.53;;;11.93;;
24617;SDS011;12762;51.730;5.356;2023-11-21T01:31:15;25.47;;;11.70;;
24617;SDS011;12762;51.730;5.356;2023-11-21T01:33:42;29.00;;;10.87;;
24617;SDS011;12762;51.730;5.356;2023-11-21T01:36:09;22.87;;;11.37;;
24617;SDS011;12762;51.730;5.356;2023-11-21T01:38:36;21.20;;;11.47;;
24617;SDS011;12762;51.730;5.356;2023-11-21T01:41:05;20.40;;;11.03;;
24617;SDS011;12762;51.730;5.356;2023-11-21T01:43:32;23.23;;;11.13;;
24617;SDS011;12762;51.730;5.356;2023-11-21T01:46:00;23.13;;;10.47;;
24617;SDS011;12762;51.730;5.356;2023-11-21T01:48:30;24.07;;;11.57;;
24617;SDS011;12762;51.730;5.356;2023-11-21T01:50:58;24.47;;;12.00;;
24617;SDS011;12762;51.730;5.356;2023-11-21T01:53:25;26.17;;;14.27;;
24617;SDS011;12762;51.730;5.356;2023-11-21T01:55:56;28.57;;;13.07;;
24617;SDS011;12762;51.730;5.356;2023-11-21T01:58:24;34.33;;;14.73;;
24617;SDS011;12762;51.730;5.356;2023-11-21T02:00:51;32.30;;;13.23;;
24617;SDS011;12762;51.730;5.356;2023-11-21T02:03:23;27.37;;;13.17;;
24617;SDS011;12762;51.730;5.356;2023-11-21T02:05:50;30.87;;;13.97;;
24617;SDS011;12762;51.730;5.356;2023-11-21T02:08:18;28.47;;;12.20;;
24617;SDS011;12762;51.730;5.356;2023-11-21T02:10:45;30.37;;;12.87;;
24617;SDS011;12762;51.730;5.356;2023-11-21T02:13:13;31.40;;;14.47;;
24617;SDS011;12762;51.730;5.356;2023-11-21T02:15:41;32.57;;;15.10;;
24617;SDS011;12762;51.730;5.356;2023-11-21T02:18:08;26.93;;;13.07;;
24617;SDS011;12762;51.730;5.356;2023-11-21T02:20:36;30.93;;;13.10;;
24617;SDS011;12762;51.730;5.356;2023-11-21T02:23:05;29.43;;;12.80;;
24617;SDS011;12762;51.730;5.356;2023-11-21T02:25:33;28.50;;;13.10;;
24617;SDS011;12762;51.730;5.356;2023-11-21T02:28:01;28.97;;;13.30;;
24617;SDS011;12762;51.730;5.356;2023-11-21T02:30:29;27.83;;;12.57;;
24617;SDS011;12762;51.730;5.356;2023-11-21T02:32:58;30.97;;;13.27;;
24617;SDS011;12762;51.730;5.356;2023-11-21T02:35:29;27.57;;;12.67;;
24617;SDS011;12762;51.730;5.356;2023-11-21T02:37:58;26.03;;;12.33;;
24617;SDS011;12762;51.730;5.356;2023-11-21T02:40:24;30.90;;;14.17;;
24617;SDS011;12762;51.730;5.356;2023-11-21T02:42:53;29.43;;;12.43;;
24617;SDS011;12762;51.730;5.356;2023-11-21T02:45:20;31.27;;;15.73;;
24617;SDS011;12762;51.730;5.356;2023-11-21T02:47:48;36.70;;;15.47;;
24617;SDS011;12762;51.730;5.356;2023-11-21T02:50:16;34.33;;;13.30;;
24617;SDS011;12762;51.730;5.356;2023-11-21T02:52:50;29.73;;;13.67;;
24617;SDS011;12762;51.730;5.356;2023-11-21T02:55:17;26.60;;;12.97;;
24617;SDS011;12762;51.730;5.356;2023-11-21T02:57:44;32.00;;;14.17;;
24617;SDS011;12762;51.730;5.356;2023-11-21T03:00:11;29.27;;;13.27;;
24617;SDS011;12762;51.730;5.356;2023-11-21T03:02:41;29.93;;;12.73;;
24617;SDS011;12762;51.730;5.356;2023-11-21T03:05:08;28.93;;;14.10;;
24617;SDS011;12762;51.730;5.356;2023-11-21T03:07:36;29.27;;;13.07;;
24617;SDS011;12762;51.730;5.356;2023-11-21T03:10:04;35.37;;;15.73;;
24617;SDS011;12762;51.730;5.356;2023-11-21T03:12:35;32.27;;;13.57;;
24617;SDS011;12762;51.730;5.356;2023-11-21T03:15:01;31.27;;;13.80;;
24617;SDS011;12762;51.730;5.356;2023-11-21T03:17:29;26.97;;;13.30;;
24617;SDS011;12762;51.730;5.356;2023-11-21T03:19:55;41.43;;;14.80;;
24617;SDS011;12762;51.730;5.356;2023-11-21T03:22:23;32.57;;;13.73;;
24617;SDS011;12762;51.730;5.356;2023-11-21T03:24:50;31.37;;;13.53;;
24617;SDS011;12762;51.730;5.356;2023-11-21T03:27:17;27.20;;;13.13;;
24617;SDS011;12762;51.730;5.356;2023-11-21T03:29:44;29.37;;;13.27;;
24617;SDS011;12762;51.730;5.356;2023-11-21T03:32:12;29.67;;;13.67;;
24617;SDS011;12762;51.730;5.356;2023-11-21T03:34:52;28.83;;;13.30;;
24617;SDS011;12762;51.730;5.356;2023-11-21T03:37:21;29.70;;;13.53;;
24617;SDS011;12762;51.730;5.356;2023-11-21T03:39:48;33.43;;;13.53;;
24617;SDS011;12762;51.730;5.356;2023-11-21T03:42:15;29.77;;;14.37;;
24617;SDS011;12762;51.730;5.356;2023-11-21T03:44:42;27.10;;;13.57;;
24617;SDS011;12762;51.730;5.356;2023-11-21T03:47:09;30.87;;;13.40;;
24617;SDS011;12762;51.730;5.356;2023-11-21T03:49:36;25.20;;;12.27;;
24617;SDS011;12762;51.730;5.356;2023-11-21T03:52:06;26.37;;;12.80;;
24617;SDS011;12762;51.730;5.356;2023-11-21T03:54:34;23.30;;;12.57;;
24617;SDS011;12762;51.730;5.356;2023-11-21T03:57:03;24.90;;;12.40;;
24617;SDS011;12762;51.730;5.356;2023-11-21T03:59:30;24.77;;;12.03;;
24617;SDS011;12762;51.730;5.356;2023-11-21T04:01:57;26.87;;;12.50;;
24617;SDS011;12762;51.730;5.356;2023-11-21T04:04:24;22.77;;;12.07;;
24617;SDS011;12762;51.730;5.356;2023-11-21T04:06:51;27.63;;;12.77;;
24617;SDS011;12762;51.730;5.356;2023-11-21T04:09:18;23.47;;;12.57;;
24617;SDS011;12762;51.730;5.356;2023-11-21T04:11:45;22.80;;;12.00;;
24617;SDS011;12762;51.730;5.356;2023-11-21T04:14:12;25.83;;;12.87;;
24617;SDS011;12762;51.730;5.356;2023-11-21T04:16:45;23.90;;;11.77;;
24617;SDS011;12762;51.730;5.356;2023-11-21T04:19:12;26.53;;;12.47;;
24617;SDS011;12762;51.730;5.356;2023-11-21T04:21:45;26.60;;;11.53;;
24617;SDS011;12762;51.730;5.356;2023-11-21T04:24:12;19.87;;;10.63;;
24617;SDS011;12762;51.730;5.356;2023-11-21T04:26:43;23.67;;;12.10;;
24617;SDS011;12762;51.730;5.356;2023-11-21T04:29:10;23.67;;;11.73;;
24617;SDS011;12762;51.730;5.356;2023-11-21T04:31:37;26.93;;;11.37;;
24617;SDS011;12762;51.730;5.356;2023-11-21T04:34:04;20.97;;;11.07;;
24617;SDS011;12762;51.730;5.356;2023-11-21T04:36:31;24.80;;;11.77;;
24617;SDS011;12762;51.730;5.356;2023-11-21T04:38:58;26.57;;;11.93;;
24617;SDS011;12762;51.730;5.356;2023-11-21T04:41:25;22.90;;;11.87;;
24617;SDS011;12762;51.730;5.356;2023-11-21T04:43:51;23.07;;;11.63;;
24617;SDS011;12762;51.730;5.356;2023-11-21T04:46:18;22.50;;;11.27;;
24617;SDS011;12762;51.730;5.356;2023-11-21T04:48:45;22.03;;;11.50;;
24617;SDS011;12762;51.730;5.356;2023-11-21T04:51:13;21.47;;;11.57;;
24617;SDS011;12762;51.730;5.356;2023-11-21T04:53:40;23.00;;;11.13;;
24617;SDS011;12762;51.730;5.356;2023-11-21T04:56:07;22.73;;;11.27;;
24617;SDS011;12762;51.730;5.356;2023-11-21T04:58:34;19.33;;;10.43;;
24617;SDS011;12762;51.730;5.356;2023-11-21T05:01:01;22.30;;;11.80;;
24617;SDS011;12762;51.730;5.356;2023-11-21T05:03:33;23.50;;;11.77;;
24617;SDS011;12762;51.730;5.356;2023-11-21T05:06:00;21.97;;;11.03;;
24617;SDS011;12762;51.730;5.356;2023-11-21T05:08:26;24.60;;;10.87;;
24617;SDS011;12762;51.730;5.356;2023-11-21T05:10:53;24.97;;;10.67;;
24617;SDS011;12762;51.730;5.356;2023-11-21T05:13:22;24.87;;;12.30;;
24617;SDS011;12762;51.730;5.356;2023-11-21T05:15:56;26.40;;;11.00;;
24617;SDS011;12762;51.730;5.356;2023-11-21T05:18:23;23.90;;;10.93;;
24617;SDS011;12762;51.730;5.356;2023-11-21T05:20:53;22.10;;;11.93;;
24617;SDS011;12762;51.730;5.356;2023-11-21T05:23:20;24.47;;;11.40;;
24617;SDS011;12762;51.730;5.356;2023-11-21T05:25:52;24.73;;;11.80;;
24617;SDS011;12762;51.730;5.356;2023-11-21T05:28:19;24.80;;;11.67;;
24617;SDS011;12762;51.730;5.356;2023-11-21T05:30:46;21.40;;;11.33;;
24617;SDS011;12762;51.730;5.356;2023-11-21T05:33:13;29.27;;;11.63;;
24617;SDS011;12762;51.730;5.356;2023-11-21T05:35:40;23.57;;;12.20;;
24617;SDS011;12762;51.730;5.356;2023-11-21T05:38:06;27.97;;;12.00;;
24617;SDS011;12762;51.730;5.356;2023-11-21T05:40:36;27.37;;;12.70;;
24617;SDS011;12762;51.730;5.356;2023-11-21T05:43:03;25.60;;;11.90;;
24617;SDS011;12762;51.730;5.356;2023-11-21T05:45:31;21.53;;;11.47;;
24617;SDS011;12762;51.730;5.356;2023-11-21T05:47:58;25.77;;;12.83;;
24617;SDS011;12762;51.730;5.356;2023-11-21T05:50:25;27.80;;;11.87;;
24617;SDS011;12762;51.730;5.356;2023-11-21T05:52:52;27.97;;;12.83;;
24617;SDS011;12762;51.730;5.356;2023-11-21T05:55:19;30.97;;;13.50;;
24617;SDS011;12762;51.730;5.356;2023-11-21T05:57:52;26.40;;;12.47;;
24617;SDS011;12762;51.730;5.356;2023-11-21T06:00:19;31.20;;;13.60;;
24617;SDS011;12762;51.730;5.356;2023-11-21T06:02:48;24.53;;;12.83;;
24617;SDS011;12762;51.730;5.356;2023-11-21T06:05:23;24.77;;;12.53;;
24617;SDS011;12762;51.730;5.356;2023-11-21T06:07:58;26.73;;;12.10;;
24617;SDS011;12762;51.730;5.356;2023-11-21T06:10:26;28.60;;;13.47;;
24617;SDS011;12762;51.730;5.356;2023-11-21T06:12:54;25.73;;;13.50;;
24617;SDS011;12762;51.730;5.356;2023-11-21T06:15:21;30.07;;;12.80;;
24617;SDS011;12762;51.730;5.356;2023-11-21T06:17:49;30.63;;;14.30;;
24617;SDS011;12762;51.730;5.356;2023-11-21T06:20:19;29.83;;;13.80;;
24617;SDS011;12762;51.730;5.356;2023-11-21T06:22:49;32.07;;;13.90;;
24617;SDS011;12762;51.730;5.356;2023-11-21T06:25:17;28.33;;;13.17;;
24617;SDS011;12762;51.730;5.356;2023-11-21T06:27:45;29.33;;;13.40;;
24617;SDS011;12762;51.730;5.356;2023-11-21T06:30:13;40.03;;;13.70;;
24617;SDS011;12762;51.730;5.356;2023-11-21T06:32:50;31.73;;;14.17;;
24617;SDS011;12762;51.730;5.356;2023-11-21T06:35:18;32.07;;;14.60;;
24617;SDS011;12762;51.730;5.356;2023-11-21T06:37:46;31.43;;;14.33;;
24617;SDS011;12762;51.730;5.356;2023-11-21T06:40:18;33.57;;;15.00;;
24617;SDS011;12762;51.730;5.356;2023-11-21T06:42:46;27.47;;;13.90;;
24617;SDS011;12762;51.730;5.356;2023-11-21T06:45:13;30.80;;;13.53;;
24617;SDS011;12762;51.730;5.356;2023-11-21T06:47:41;28.90;;;13.47;;
24617;SDS011;12762;51.730;5.356;2023-11-21T06:50:08;35.13;;;15.20;;
24617;SDS011;12762;51.730;5.356;2023-11-21T06:52:42;42.03;;;15.73;;
24617;SDS011;12762;51.730;5.356;2023-11-21T06:55:09;33.60;;;15.20;;
24617;SDS011;12762;51.730;5.356;2023-11-21T06:57:37;34.00;;;15.67;;
24617;SDS011;12762;51.730;5.356;2023-11-21T07:00:04;36.47;;;14.97;;
24617;SDS011;12762;51.730;5.356;2023-11-21T07:02:33;34.17;;;15.10;;
24617;SDS011;12762;51.730;5.356;2023-11-21T07:05:00;37.63;;;15.80;;
24617;SDS011;12762;51.730;5.356;2023-11-21T07:07:30;35.37;;;14.37;;
24617;SDS011;12762;51.730;5.356;2023-11-21T07:09:57;37.30;;;15.33;;
24617;SDS011;12762;51.730;5.356;2023-11-21T07:12:30;36.80;;;14.57;;
24617;SDS011;12762;51.730;5.356;2023-11-21T07:14:57;37.30;;;15.03;;
24617;SDS011;12762;51.730;5.356;2023-11-21T07:17:24;31.57;;;14.50;;
24617;SDS011;12762;51.730;5.356;2023-11-21T07:19:51;37.03;;;15.23;;
24617;SDS011;12762;51.730;5.356;2023-11-21T07:22:21;35.00;;;15.03;;
24617;SDS011;12762;51.730;5.356;2023-11-21T07:24:48;39.07;;;15.37;;
24617;SDS011;12762;51.730;5.356;2023-11-21T07:27:22;36.97;;;15.37;;
24617;SDS011;12762;51.730;5.356;2023-11-21T07:29:49;39.50;;;15.57;;
24617;SDS011;12762;51.730;5.356;2023-11-21T07:32:16;37.73;;;15.43;;
24617;SDS011;12762;51.730;5.356;2023-11-21T07:34:46;43.50;;;15.60;;
24617;SDS011;12762;51.730;5.356;2023-11-21T07:37:12;37.07;;;16.00;;
24617;SDS011;12762;51.730;5.356;2023-11-21T07:39:39;44.20;;;16.00;;
24617;SDS011;12762;51.730;5.356;2023-11-21T07:42:08;42.97;;;15.93;;
24617;SDS011;12762;51.730;5.356;2023-11-21T07:44:37;42.73;;;16.27;;
24617;SDS011;12762;51.730;5.356;2023-11-21T07:47:04;42.93;;;16.83;;
24617;SDS011;12762;51.730;5.356;2023-11-21T07:49:31;42.50;;;16.20;;
24617;SDS011;12762;51.730;5.356;2023-11-21T07:51:57;47.53;;;16.67;;
24617;SDS011;12762;51.730;5.356;2023-11-21T07:54:24;44.47;;;16.70;;
24617;SDS011;12762;51.730;5.356;2023-11-21T07:56:51;40.27;;;15.43;;
24617;SDS011;12762;51.730;5.356;2023-11-21T07:59:18;40.50;;;16.93;;
24617;SDS011;12762;51.730;5.356;2023-11-21T08:01:45;43.03;;;16.63;;
24617;SDS011;12762;51.730;5.356;2023-11-21T08:04:12;42.17;;;16.63;;
24617;SDS011;12762;51.730;5.356;2023-11-21T08:06:39;37.17;;;16.20;;
24617;SDS011;12762;51.730;5.356;2023-11-21T08:09:07;42.83;;;16.60;;
24617;SDS011;12762;51.730;5.356;2023-11-21T08:11:35;38.90;;;16.90;;
24617;SDS011;12762;51.730;5.356;2023-11-21T08:14:05;44.90;;;17.23;;
24617;SDS011;12762;51.730;5.356;2023-11-21T08:16:32;40.77;;;16.30;;
24617;SDS011;12762;51.730;5.356;2023-11-21T08:18:59;43.37;;;15.63;;
24617;SDS011;12762;51.730;5.356;2023-11-21T08:21:26;48.97;;;16.83;;
24617;SDS011;12762;51.730;5.356;2023-11-21T08:23:57;41.60;;;17.20;;
24617;SDS011;12762;51.730;5.356;2023-11-21T08:26:24;47.47;;;17.80;;
24617;SDS011;12762;51.730;5.356;2023-11-21T08:28:51;42.53;;;16.93;;
24617;SDS011;12762;51.730;5.356;2023-11-21T08:31:23;41.90;;;16.73;;
24617;SDS011;12762;51.730;5.356;2023-11-21T08:33:53;46.33;;;16.57;;
24617;SDS011;12762;51.730;5.356;2023-11-21T08:36:24;43.40;;;17.07;;
24617;SDS011;12762;51.730;5.356;2023-11-21T08:38:51;45.83;;;16.93;;
24617;SDS011;12762;51.730;5.356;2023-11-21T08:41:18;32.77;;;15.07;;
24617;SDS011;12762;51.730;5.356;2023-11-21T08:43:47;40.87;;;17.30;;
24617;SDS011;12762;51.730;5.356;2023-11-21T08:46:16;43.93;;;16.23;;
24617;SDS011;12762;51.730;5.356;2023-11-21T08:48:44;42.60;;;17.37;;
24617;SDS011;12762;51.730;5.356;2023-11-21T08:51:11;46.23;;;17.60;;
24617;SDS011;12762;51.730;5.356;2023-11-21T08:53:38;39.87;;;16.60;;
24617;SDS011;12762;51.730;5.356;2023-11-21T08:56:05;38.97;;;16.70;;
24617;SDS011;12762;51.730;5.356;2023-11-21T08:58:32;42.27;;;16.83;;
24617;SDS011;12762;51.730;5.356;2023-11-21T09:00:59;38.73;;;16.23;;
24617;SDS011;12762;51.730;5.356;2023-11-21T09:03:27;34.80;;;16.00;;
24617;SDS011;12762;51.730;5.356;2023-11-21T09:05:58;38.57;;;16.00;;
24617;SDS011;12762;51.730;5.356;2023-11-21T09:08:25;35.47;;;15.50;;
24617;SDS011;12762;51.730;5.356;2023-11-21T09:10:54;35.53;;;15.83;;
24617;SDS011;12762;51.730;5.356;2023-11-21T09:13:22;36.37;;;15.60;;
24617;SDS011;12762;51.730;5.356;2023-11-21T09:15:52;33.90;;;14.90;;
24617;SDS011;12762;51.730;5.356;2023-11-21T09:18:18;29.87;;;14.13;;
24617;SDS011;12762;51.730;5.356;2023-11-21T09:20:45;34.37;;;14.87;;
24617;SDS011;12762;51.730;5.356;2023-11-21T09:23:12;32.30;;;14.17;;
24617;SDS011;12762;51.730;5.356;2023-11-21T09:25:39;29.83;;;13.73;;
24617;SDS011;12762;51.730;5.356;2023-11-21T09:28:06;31.70;;;13.93;;
24617;SDS011;12762;51.730;5.356;2023-11-21T09:30:39;27.87;;;13.07;;
24617;SDS011;12762;51.730;5.356;2023-11-21T09:33:08;30.80;;;13.67;;
24617;SDS011;12762;51.730;5.356;2023-11-21T09:35:43;32.23;;;12.60;;
24617;SDS011;12762;51.730;5.356;2023-11-21T09:38:10;30.03;;;12.60;;
24617;SDS011;12762;51.730;5.356;2023-11-21T09:40:38;29.33;;;13.97;;
24617;SDS011;12762;51.730;5.356;2023-11-21T09:43:09;30.50;;;13.00;;
24617;SDS011;12762;51.730;5.356;2023-11-21T09:45:45;27.00;;;12.20;;
24617;SDS011;12762;51.730;5.356;2023-11-21T09:48:13;32.60;;;13.07;;
24617;SDS011;12762;51.730;5.356;2023-11-21T09:50:43;25.07;;;12.30;;
24617;SDS011;12762;51.730;5.356;2023-11-21T09:55:54;26.60;;;10.50;;
24617;SDS011;12762;51.730;5.356;2023-11-21T09:58:21;26.40;;;12.23;;
24617;SDS011;12762;51.730;5.356;2023-11-21T10:00:50;22.00;;;10.60;;
24617;SDS011;12762;51.730;5.356;2023-11-21T10:03:19;20.07;;;10.67;;
24617;SDS011;12762;51.730;5.356;2023-11-21T10:05:48;23.27;;;10.63;;
24617;SDS011;12762;51.730;5.356;2023-11-21T10:08:16;22.43;;;10.20;;
24617;SDS011;12762;51.730;5.356;2023-11-21T10:10:47;18.13;;;9.13;;
24617;SDS011;12762;51.730;5.356;2023-11-21T10:13:17;19.53;;;9.30;;
24617;SDS011;12762;51.730;5.356;2023-11-21T10:15:49;17.27;;;9.03;;
24617;SDS011;12762;51.730;5.356;2023-11-21T10:18:18;18.40;;;8.70;;
24617;SDS011;12762;51.730;5.356;2023-11-21T10:20:45;15.20;;;8.30;;
24617;SDS011;12762;51.730;5.356;2023-11-21T10:23:20;17.33;;;8.33;;
24617;SDS011;12762;51.730;5.356;2023-11-21T10:25:50;15.73;;;7.77;;
24617;SDS011;12762;51.730;5.356;2023-11-21T10:28:23;17.00;;;8.07;;
24617;SDS011;12762;51.730;5.356;2023-11-21T10:30:50;14.73;;;7.60;;
24617;SDS011;12762;51.730;5.356;2023-11-21T10:33:20;14.83;;;7.13;;
24617;SDS011;12762;51.730;5.356;2023-11-21T10:35:54;14.60;;;7.47;;
24617;SDS011;12762;51.730;5.356;2023-11-21T10:38:23;15.37;;;7.20;;
24617;SDS011;12762;51.730;5.356;2023-11-21T10:40:52;16.47;;;7.20;;
24617;SDS011;12762;51.730;5.356;2023-11-21T10:43:24;17.03;;;8.20;;
24617;SDS011;12762;51.730;5.356;2023-11-21T10:45:51;17.87;;;9.37;;
24617;SDS011;12762;51.730;5.356;2023-11-21T10:48:18;20.70;;;8.83;;
24617;SDS011;12762;51.730;5.356;2023-11-21T10:50:47;18.63;;;8.67;;
24617;SDS011;12762;51.730;5.356;2023-11-21T10:53:20;19.73;;;8.50;;
24617;SDS011;12762;51.730;5.356;2023-11-21T10:55:47;15.47;;;9.37;;
24617;SDS011;12762;51.730;5.356;2023-11-21T10:58:14;15.47;;;7.80;;
24617;SDS011;12762;51.730;5.356;2023-11-21T11:00:43;17.87;;;7.90;;
24617;SDS011;12762;51.730;5.356;2023-11-21T11:03:12;15.70;;;7.43;;
24617;SDS011;12762;51.730;5.356;2023-11-21T11:05:46;17.60;;;7.60;;
24617;SDS011;12762;51.730;5.356;2023-11-21T11:08:19;14.37;;;7.43;;
24617;SDS011;12762;51.730;5.356;2023-11-21T11:10:52;17.37;;;8.17;;
24617;SDS011;12762;51.730;5.356;2023-11-21T11:13:19;12.37;;;7.63;;
24617;SDS011;12762;51.730;5.356;2023-11-21T11:15:47;16.30;;;8.43;;
24617;SDS011;12762;51.730;5.356;2023-11-21T11:18:15;15.77;;;8.07;;
24617;SDS011;12762;51.730;5.356;2023-11-21T11:20:43;17.20;;;8.53;;
24617;SDS011;12762;51.730;5.356;2023-11-21T11:28:47;18.10;;;9.93;;
24617;SDS011;12762;51.730;5.356;2023-11-21T11:31:36;21.13;;;9.70;;
24617;SDS011;12762;51.730;5.356;2023-11-21T11:34:31;18.83;;;9.83;;
24617;SDS011;12762;51.730;5.356;2023-11-21T11:37:04;17.77;;;9.37;;
24617;SDS011;12762;51.730;5.356;2023-11-21T11:39:41;17.70;;;9.03;;
24617;SDS011;12762;51.730;5.356;2023-11-21T11:42:13;18.70;;;9.20;;
24617;SDS011;12762;51.730;5.356;2023-11-21T11:47:19;21.10;;;9.60;;
24617;SDS011;12762;51.730;5.356;2023-11-21T11:52:50;19.93;;;9.00;;
24617;SDS011;12762;51.730;5.356;2023-11-21T11:55:20;19.37;;;9.83;;
24617;SDS011;12762;51.730;5.356;2023-11-21T11:57:49;16.67;;;9.53;;
24617;SDS011;12762;51.730;5.356;2023-11-21T12:00:32;16.77;;;9.33;;
24617;SDS011;12762;51.730;5.356;2023-11-21T12:03:04;24.47;;;11.00;;
24617;SDS011;12762;51.730;5.356;2023-11-21T12:05:33;20.70;;;11.10;;
24617;SDS011;12762;51.730;5.356;2023-11-21T12:08:11;23.30;;;11.03;;
24617;SDS011;12762;51.730;5.356;2023-11-21T12:10:38;19.53;;;10.13;;
24617;SDS011;12762;51.730;5.356;2023-11-21T12:13:06;25.17;;;12.23;;
24617;SDS011;12762;51.730;5.356;2023-11-21T12:15:36;21.23;;;11.27;;
24617;SDS011;12762;51.730;5.356;2023-11-21T12:18:05;24.23;;;11.67;;
24617;SDS011;12762;51.730;5.356;2023-11-21T12:20:35;20.87;;;10.97;;
24617;SDS011;12762;51.730;5.356;2023-11-21T12:23:06;21.07;;;11.73;;
24617;SDS011;12762;51.730;5.356;2023-11-21T12:25:33;20.53;;;10.93;;
24617;SDS011;12762;51.730;5.356;2023-11-21T12:28:03;21.37;;;11.03;;
24617;SDS011;12762;51.730;5.356;2023-11-21T12:30:30;19.50;;;11.77;;
24617;SDS011;12762;51.730;5.356;2023-11-21T12:32:59;20.83;;;11.77;;
24617;SDS011;12762;51.730;5.356;2023-11-21T12:35:27;23.00;;;11.97;;
24617;SDS011;12762;51.730;5.356;2023-11-21T12:37:56;22.83;;;11.60;;
24617;SDS011;12762;51.730;5.356;2023-11-21T12:40:26;20.13;;;11.70;;
24617;SDS011;12762;51.730;5.356;2023-11-21T12:42:57;21.97;;;11.37;;
24617;SDS011;12762;51.730;5.356;2023-11-21T12:45:27;20.80;;;10.63;;
24617;SDS011;12762;51.730;5.356;2023-11-21T12:47:58;20.97;;;11.07;;
24617;SDS011;12762;51.730;5.356;2023-11-21T12:50:30;19.87;;;10.40;;
24617;SDS011;12762;51.730;5.356;2023-11-21T12:53:06;19.33;;;10.20;;
24617;SDS011;12762;51.730;5.356;2023-11-21T12:55:36;21.53;;;9.87;;
24617;SDS011;12762;51.730;5.356;2023-11-21T12:58:08;19.33;;;9.60;;
24617;SDS011;12762;51.730;5.356;2023-11-21T13:00:38;18.03;;;9.00;;
24617;SDS011;12762;51.730;5.356;2023-11-21T13:03:08;21.47;;;10.27;;
24617;SDS011;12762;51.730;5.356;2023-11-21T13:05:39;20.73;;;9.60;;
24617;SDS011;12762;51.730;5.356;2023-11-21T13:08:13;17.67;;;9.33;;
24617;SDS011;12762;51.730;5.356;2023-11-21T13:10:44;19.13;;;9.30;;
24617;SDS011;12762;51.730;5.356;2023-11-21T13:13:13;18.53;;;9.90;;
24617;SDS011;12762;51.730;5.356;2023-11-21T13:15:53;17.83;;;9.07;;
24617;SDS011;12762;51.730;5.356;2023-11-21T13:18:24;17.90;;;8.93;;
24617;SDS011;12762;51.730;5.356;2023-11-21T13:20:56;19.23;;;9.13;;
24617;SDS011;12762;51.730;5.356;2023-11-21T13:23:28;19.73;;;8.43;;
24617;SDS011;12762;51.730;5.356;2023-11-21T13:25:59;15.97;;;7.63;;
24617;SDS011;12762;51.730;5.356;2023-11-21T13:28:36;15.33;;;7.70;;
24617;SDS011;12762;51.730;5.356;2023-11-21T13:31:04;12.77;;;6.93;;
24617;SDS011;12762;51.730;5.356;2023-11-21T13:33:37;13.50;;;6.67;;
24617;SDS011;12762;51.730;5.356;2023-11-21T13:36:12;12.33;;;7.03;;
24617;SDS011;12762;51.730;5.356;2023-11-21T13:38:41;11.27;;;5.77;;
24617;SDS011;12762;51.730;5.356;2023-11-21T13:41:09;13.50;;;5.43;;
24617;SDS011;12762;51.730;5.356;2023-11-21T13:43:38;13.67;;;6.27;;
24617;SDS011;12762;51.730;5.356;2023-11-21T13:46:05;10.80;;;6.03;;
24617;SDS011;12762;51.730;5.356;2023-11-21T13:48:43;10.30;;;5.57;;
24617;SDS011;12762;51.730;5.356;2023-11-21T13:51:17;13.73;;;6.27;;
24617;SDS011;12762;51.730;5.356;2023-11-21T13:53:44;11.63;;;6.50;;
24617;SDS011;12762;51.730;5.356;2023-11-21T13:56:14;11.57;;;6.50;;
24617;SDS011;12762;51.730;5.356;2023-11-21T13:58:46;12.37;;;6.23;;
24617;SDS011;12762;51.730;5.356;2023-11-21T14:01:18;12.80;;;6.80;;
24617;SDS011;12762;51.730;5.356;2023-11-21T14:04:05;12.27;;;6.83;;
24617;SDS011;12762;51.730;5.356;2023-11-21T14:06:46;13.23;;;6.20;;
24617;SDS011;12762;51.730;5.356;2023-11-21T14:09:19;12.03;;;6.20;;
24617;SDS011;12762;51.730;5.356;2023-11-21T14:12:01;10.73;;;5.80;;
24617;SDS011;12762;51.730;5.356;2023-11-21T14:14:32;13.33;;;6.43;;
24617;SDS011;12762;51.730;5.356;2023-11-21T14:17:00;11.67;;;5.80;;
24617;SDS011;12762;51.730;5.356;2023-11-21T14:19:32;9.90;;;5.63;;
24617;SDS011;12762;51.730;5.356;2023-11-21T14:22:00;11.13;;;5.93;;
24617;SDS011;12762;51.730;5.356;2023-11-21T14:24:27;10.70;;;5.90;;
24617;SDS011;12762;51.730;5.356;2023-11-21T14:26:58;13.13;;;6.80;;
24617;SDS011;12762;51.730;5.356;2023-11-21T14:29:29;15.10;;;7.90;;
24617;SDS011;12762;51.730;5.356;2023-11-21T14:31:57;16.20;;;8.47;;
24617;SDS011;12762;51.730;5.356;2023-11-21T14:34:24;16.30;;;9.00;;
24617;SDS011;12762;51.730;5.356;2023-11-21T14:36:52;15.20;;;8.27;;
24617;SDS011;12762;51.730;5.356;2023-11-21T14:39:25;19.10;;;9.40;;
24617;SDS011;12762;51.730;5.356;2023-11-21T14:42:26;16.90;;;8.30;;
24617;SDS011;12762;51.730;5.356;2023-11-21T14:44:55;17.93;;;8.93;;
24617;SDS011;12762;51.730;5.356;2023-11-21T14:47:29;20.10;;;10.03;;
24617;SDS011;12762;51.730;5.356;2023-11-21T14:49:56;17.50;;;8.70;;